Latest Weather Observations for Essendon Airport

IDV60901

Issued at 8:31 am EST Tuesday 7 July 2015 (issued every 10 minutes, with the page automatically refreshed every 10 minutes)

About weather observations | Map of Melbourne area stations | Latest observations for Melbourne area | Other Formats
Station Details ID: 086038 Name: ESSENDON AIRPORT Lat: -37.73 Lon: 144.91 Height: 78.4 m
Data from the previous 72 hours. | See also: Recent months at Essendon Airport
Date/Time
EST
Tmp

°C
App
Tmp
°C
Dew
Point
°C
Rel
Hum
%
Delta-T

°C
Wind Press
QNH
hPa
Press
MSL
hPa
Rain
since
9 am
mm
Dir
 
Spd
km/h
Gust
km/h
Spd
kts
Gust
kts
07/08:30am 8.5 6.6 6.6 88 0.9 ENE 6 7 3 4 1022.1 1022.3 1.6
07/08:00am 8.5 6.4 6.5 87 0.9 N 7 9 4 5 1021.8 1021.9 1.6
07/07:30am 8.2 6.3 6.5 89 0.8 NNE 6 7 3 4 1021.5 1021.6 1.6
07/07:00am 8.1 5.9 6.2 88 0.9 NNE 7 9 4 5 1020.9 1021.0 1.6
07/06:30am 8.2 5.2 6.2 87 0.9 N 11 15 6 8 1020.4 1020.5 1.6
07/06:00am 8.5 5.6 6.5 87 0.9 NNE 11 13 6 7 1020.1 1020.2 1.6
07/05:30am 8.3 5.7 6.1 86 1.0 NNE 9 11 5 6 1019.8 1019.9 1.6
07/05:00am 8.4 5.4 6.2 86 1.0 NE 11 15 6 8 1019.6 1019.7 1.6
07/04:30am 8.3 5.7 5.9 85 1.1 NNE 9 11 5 6 1019.5 1019.6 1.6
07/04:00am 8.2 5.2 5.8 85 1.1 N 11 17 6 9 1019.3 1019.4 1.6
07/03:30am 8.0 5.0 5.8 86 1.0 N 11 15 6 8 1019.3 1019.4 1.6
07/03:00am 8.0 4.9 5.6 85 1.1 N 11 13 6 7 1019.3 1019.4 1.6
07/02:30am 7.9 4.8 5.7 86 1.0 N 11 15 6 8 1019.1 1019.2 1.6
07/02:00am 7.7 4.6 5.5 86 1.0 N 11 17 6 9 1018.8 1018.9 1.6
07/01:30am 7.8 4.3 5.6 86 1.0 N 13 19 7 10 1018.6 1018.7 1.6
07/01:00am 7.8 3.6 5.6 86 1.0 N 17 22 9 12 1018.3 1018.4 1.6
07/12:30am 7.8 3.6 5.6 86 1.0 N 17 24 9 13 1018.2 1018.3 1.6
07/12:00am 8.1 3.9 5.9 86 1.0 N 17 24 9 13 1018.3 1018.4 1.6
 
Date/Time
EST
Tmp

°C
App
Tmp
°C
Dew
Point
°C
Rel
Hum
%
Delta-T

°C
Wind Press
QNH
hPa
Press
MSL
hPa
Rain
since
9 am
mm
Dir
 
Spd
km/h
Gust
km/h
Spd
kts
Gust
kts
06/11:30pm 8.3 3.6 5.9 85 1.1 N 20 30 11 16 1018.3 1018.4 1.6
06/11:00pm 8.2 3.5 6.0 86 1.0 N 20 32 11 17 1018.2 1018.3 1.6
06/10:30pm 8.1 3.6 5.9 86 1.0 N 19 28 10 15 1018.2 1018.3 1.6
06/10:00pm 8.1 3.0 5.9 86 1.0 N 22 30 12 16 1018.0 1018.1 1.6
06/09:30pm 8.2 2.7 6.0 86 1.0 N 24 32 13 17 1017.8 1017.9 1.6
06/09:00pm 8.2 2.8 6.2 87 0.9 N 24 33 13 18 1017.6 1017.7 1.6
06/08:30pm 8.1 2.3 6.1 87 0.9 N 26 35 14 19 1017.5 1017.6 1.6
06/08:00pm 7.9 2.8 6.2 89 0.8 N 22 35 12 19 1017.2 1017.3 1.6
06/07:30pm 7.9 3.3 6.5 91 0.6 N 20 28 11 15 1017.1 1017.2 1.4
06/07:00pm 8.1 2.7 6.2 88 0.9 N 24 39 13 21 1016.9 1017.0 1.0
06/06:30pm 8.3 2.5 6.1 86 1.0 N 26 41 14 22 1016.7 1016.8 1.0
06/06:00pm 8.5 2.7 6.3 86 1.0 N 26 39 14 21 1016.2 1016.3 1.0
06/05:30pm 8.6 2.4 6.1 84 1.1 N 28 35 15 19 1015.9 1016.0 1.0
06/05:00pm 8.7 4.1 6.3 85 1.1 N 20 30 11 16 1015.9 1016.0 0.8
06/04:30pm 9.1 4.0 6.0 81 1.4 N 22 32 12 17 1015.7 1015.8 0.6
06/04:00pm 9.3 4.6 5.9 79 1.6 N 20 28 11 15 1015.6 1015.7 0.6
06/03:30pm 10.0 3.6 5.2 72 2.2 N 28 39 15 21 1015.4 1015.5 0.4
06/03:00pm 10.3 4.3 5.1 70 2.4 N 26 35 14 19 1015.2 1015.3 0.4
06/02:30pm 10.3 4.6 4.9 69 2.4 N 24 33 13 18 1014.9 1015.1 0.4
06/02:00pm 10.3 3.4 4.7 68 2.5 N 30 39 16 21 1015.2 1015.3 0.4
06/01:30pm 10.1 3.6 4.7 69 2.4 N 28 37 15 20 1015.3 1015.4 0.4
06/01:18pm 10.2 3.7 4.8 69 2.4 N 28 46 15 25 1015.4 1015.5 0.4
06/01:00pm 10.0 3.5 4.6 69 2.4 N 28 43 15 23 1015.6 1015.7 0.4
06/12:30pm 9.6 3.2 5.0 73 2.1 N 28 37 15 20 1015.7 1015.8 0.4
06/12:00pm 9.2 2.6 4.4 72 2.1 N 28 37 15 20 1015.9 1016.0 0.4
06/11:30am 9.2 2.4 5.0 75 1.9 N 30 41 16 22 1016.2 1016.3 0.4
06/11:00am 8.9 3.2 5.1 77 1.7 N 24 37 13 20 1016.5 1016.6 0.4
06/10:30am 8.3 2.3 5.2 81 1.4 N 26 37 14 20 1016.8 1016.9 0.4
06/10:00am 7.7 2.8 5.2 84 1.1 NNE 20 30 11 16 1016.7 1016.8 0.4
06/09:30am 7.0 2.8 5.5 90 0.7 NNE 17 22 9 12 1016.7 1016.8 0.4
06/09:00am 6.8 2.6 5.6 92 0.5 NNE 17 30 9 16 1016.8 1016.9 4.4
06/08:30am 6.8 2.0 5.4 91 0.6 N 20 30 11 16 1016.5 1016.6 3.4
06/08:00am 6.8 0.4 5.0 88 0.8 N 28 35 15 19 1016.1 1016.2 2.0
06/07:30am 7.2 1.5 4.9 85 1.0 N 24 32 13 17 1016.1 1016.2 0.6
06/07:00am 7.9 2.4 3.8 75 1.8 NNE 22 32 12 17 1016.1 1016.2 0.0
06/06:30am 8.3 3.1 3.4 71 2.1 N 20 28 11 15 1016.1 1016.2 0.0
06/06:00am 8.5 3.5 3.4 70 2.2 N 19 28 10 15 1016.0 1016.1 0.0
06/05:30am 8.5 2.9 3.6 71 2.1 N 22 33 12 18 1015.9 1016.0 0.0
06/05:00am 8.6 3.5 3.2 69 2.3 N 19 32 10 17 1015.8 1015.9 0.0
06/04:30am 8.5 2.5 3.4 70 2.2 N 24 33 13 18 1015.9 1016.0 0.0
06/04:00am 8.5 2.5 3.4 70 2.2 N 24 39 13 21 1015.9 1016.0 0.0
06/03:30am 8.5 1.8 3.6 71 2.1 N 28 43 15 23 1015.9 1016.0 0.0
06/03:00am 8.5 1.0 3.6 71 2.1 N 32 43 17 23 1016.0 1016.1 0.0
06/02:48am 8.5 1.4 3.4 70 2.2 N 30 48 16 26 1016.2 1016.3 0.0
06/02:30am 8.6 1.1 3.4 70 2.2 N 32 46 17 25 1016.3 1016.4 0.0
06/02:00am 8.5 1.4 3.4 70 2.2 N 30 43 16 23 1016.4 1016.5 0.0
06/01:30am 8.6 1.5 3.4 70 2.2 N 30 43 16 23 1016.5 1016.6 0.0
06/01:00am 8.7 1.2 3.5 70 2.2 N 32 43 17 23 1016.7 1016.8 0.0
06/12:30am 8.8 1.1 3.6 70 2.3 N 33 46 18 25 1016.9 1017.0 0.0
06/12:00am 8.8 1.1 3.6 70 2.3 N 33 46 18 25 1017.0 1017.1 0.0
 
Date/Time
EST
Tmp

°C
App
Tmp
°C
Dew
Point
°C
Rel
Hum
%
Delta-T

°C
Wind Press
QNH
hPa
Press
MSL
hPa
Rain
since
9 am
mm
Dir
 
Spd
km/h
Gust
km/h
Spd
kts
Gust
kts
05/11:30pm 8.9 1.8 3.7 70 2.3 N 30 41 16 22 1017.1 1017.2 0.0
05/11:00pm 9.0 1.6 3.8 70 2.3 N 32 50 17 27 1017.1 1017.2 0.0
05/10:30pm 9.0 2.3 3.6 69 2.3 N 28 41 15 22 1017.3 1017.4 0.0
05/10:13pm 9.2 2.5 3.6 68 2.4 N 28 46 15 25 1017.4 1017.5 0.0
05/10:00pm 9.2 2.1 3.6 68 2.4 N 30 41 16 22 1017.4 1017.5 0.0
05/09:30pm 9.3 2.2 3.7 68 2.4 N 30 41 16 22 1017.7 1017.8 0.0
05/09:00pm 9.6 3.0 4.0 68 2.5 N 28 41 15 22 1017.7 1017.8 0.0
05/08:30pm 9.8 3.5 4.0 67 2.6 N 26 35 14 19 1017.7 1017.8 0.0
05/08:00pm 9.9 4.0 4.1 67 2.6 N 24 39 13 21 1017.7 1017.8 0.0
05/07:30pm 10.1 3.5 4.0 66 2.7 N 28 37 15 20 1017.7 1017.8 0.0
05/07:00pm 10.3 4.8 4.0 65 2.8 N 22 32 12 17 1017.6 1017.7 0.0
05/06:30pm 10.3 4.4 4.0 65 2.8 N 24 33 13 18 1017.7 1017.8 0.0
05/06:00pm 11.1 4.9 4.1 62 3.1 N 26 44 14 24 1017.5 1017.6 0.0
05/05:30pm 11.5 5.3 4.3 61 3.3 N 26 41 14 22 1017.2 1017.3 0.0
05/05:00pm 11.8 5.6 4.5 61 3.3 N 26 35 14 19 1017.2 1017.3 0.0
05/04:30pm 12.5 6.4 4.7 59 3.6 N 26 35 14 19 1017.4 1017.5 0.0
05/04:00pm 13.1 6.7 5.0 58 3.8 N 28 41 15 22 1017.4 1017.5 0.0
05/03:30pm 13.2 7.5 4.9 57 3.9 N 24 35 13 19 1017.4 1017.5 0.0
05/03:00pm 13.4 8.5 5.3 58 3.8 N 20 28 11 15 1017.6 1017.7 0.0
05/02:30pm 13.6 8.0 5.3 57 3.9 N 24 35 13 19 1017.7 1017.8 0.0
05/02:00pm 13.8 9.0 5.4 57 4.0 N 20 39 11 21 1017.8 1017.9 0.0
05/01:30pm 14.3 8.0 5.7 56 4.1 N 28 39 15 21 1017.8 1017.9 0.0
05/01:00pm 13.8 9.1 5.9 59 3.8 N 20 32 11 17 1018.1 1018.2 0.0
05/12:30pm 13.9 8.4 6.0 59 3.8 N 24 33 13 18 1018.5 1018.6 0.0
05/12:00pm 13.7 8.7 6.3 61 3.5 N 22 30 12 16 1018.8 1018.9 0.0
05/11:30am 12.5 7.2 5.2 61 3.4 N 22 32 12 17 1019.2 1019.3 0.0
05/11:00am 11.9 6.2 4.9 62 3.2 N 24 30 13 16 1019.6 1019.7 0.0
05/10:30am 11.0 6.2 4.9 66 2.8 N 19 26 10 14 1019.9 1020.0 0.0
05/10:00am 10.1 5.7 4.5 68 2.5 N 17 28 9 15 1020.1 1020.2 0.0
05/09:30am 9.2 4.3 4.0 70 2.3 N 19 26 10 14 1020.3 1020.4 0.0
05/09:00am 8.7 3.7 3.7 71 2.2 N 19 24 10 13 1020.2 1020.3 3.0
05/08:30am 8.2 3.6 3.9 74 1.9 N 17 28 9 15 1020.3 1020.4 3.0
05/08:00am 8.2 3.3 3.9 74 1.9 N 19 26 10 14 1020.2 1020.3 3.0
05/07:30am 8.6 3.4 3.8 72 2.1 N 20 28 11 15 1020.3 1020.4 3.0
05/07:00am 8.6 2.7 3.8 72 2.1 N 24 32 13 17 1020.0 1020.1 3.0
05/06:30am 8.8 3.6 3.8 71 2.2 N 20 37 11 20 1019.8 1019.9 3.0
05/06:00am 8.9 3.8 4.1 72 2.1 N 20 32 11 17 1019.8 1019.9 3.0
05/05:30am 8.8 3.3 4.2 73 2.0 N 22 30 12 16 1019.3 1019.4 3.0
05/05:00am 8.9 2.3 4.3 73 2.0 N 28 37 15 20 1019.1 1019.2 3.0
05/04:30am 9.0 3.6 4.4 73 2.0 N 22 32 12 17 1019.4 1019.5 3.0
05/04:00am 8.9 4.1 4.5 74 1.9 N 19 24 10 13 1019.8 1019.9 3.0
05/03:30am 8.8 4.0 4.6 75 1.9 N 19 24 10 13 1020.2 1020.3 3.0
05/03:00am 8.8 4.4 5.0 77 1.7 N 17 26 9 14 1020.5 1020.6 3.0
05/02:30am 8.7 4.4 5.1 78 1.6 N 17 24 9 13 1020.5 1020.6 3.0
05/02:00am 8.6 3.8 5.5 81 1.4 N 20 28 11 15 1020.6 1020.7 3.0
05/01:30am 9.5 4.1 4.7 72 2.1 N 22 33 12 18 1020.7 1020.8 2.6
05/01:00am 9.6 4.6 4.8 72 2.1 N 20 26 11 14 1020.8 1020.9 2.6
05/12:30am 9.7 4.8 4.9 72 2.2 N 20 30 11 16 1020.7 1020.8 2.6
05/12:00am 9.7 4.9 4.9 72 2.2 N 19 30 10 16 1021.0 1021.1 2.6
 
Date/Time
EST
Tmp

°C
App
Tmp
°C
Dew
Point
°C
Rel
Hum
%
Delta-T

°C
Wind Press
QNH
hPa
Press
MSL
hPa
Rain
since
9 am
mm
Dir
 
Spd
km/h
Gust
km/h
Spd
kts
Gust
kts
04/11:30pm 9.8 4.9 5.0 72 2.2 N 20 32 11 17 1021.1 1021.2 2.6
04/11:00pm 9.7 4.8 5.3 74 2.0 N 20 30 11 16 1021.2 1021.3 2.6
04/10:30pm 9.7 4.8 5.3 74 2.0 N 20 30 11 16 1021.3 1021.4 2.6
04/10:00pm 9.5 4.6 5.3 75 1.9 N 20 30 11 16 1021.5 1021.6 2.6
04/09:30pm 9.3 5.1 5.9 79 1.6 N 17 24 9 13 1021.5 1021.6 2.6
04/09:00pm 9.0 4.5 6.3 83 1.2 N 19 24 10 13 1021.7 1021.8 2.6
04/08:30pm 9.6 5.4 5.8 77 1.7 N 17 24 9 13 1021.8 1021.9 2.6
04/08:00pm 9.6 5.0 5.8 77 1.7 N 19 26 10 14 1021.8 1021.9 2.6
04/07:30pm 9.8 5.6 5.6 75 1.9 N 17 24 9 13 1021.7 1021.8 2.6
04/07:00pm 9.6 5.8 5.6 76 1.8 N 15 20 8 11 1021.7 1021.8 2.6
04/06:30pm 9.7 5.5 5.7 76 1.8 N 17 24 9 13 1021.6 1021.7 2.6
04/06:00pm 9.5 5.3 5.7 77 1.7 N 17 24 9 13 1021.4 1021.5 2.6
04/05:30pm 9.5 5.3 5.9 78 1.7 N 17 24 9 13 1021.2 1021.3 2.6
04/05:00pm 9.5 4.9 5.7 77 1.7 N 19 26 10 14 1021.3 1021.4 2.6
04/04:30pm 9.5 5.7 5.7 77 1.7 N 15 20 8 11 1021.4 1021.5 2.6
04/04:00pm 9.4 5.2 5.9 79 1.6 N 17 22 9 12 1021.4 1021.5 2.6
04/03:30pm 9.4 5.3 6.1 80 1.5 N 17 26 9 14 1021.3 1021.4 2.6
04/03:00pm 8.7 5.0 6.2 84 1.1 N 15 20 8 11 1021.2 1021.3 2.6
04/02:30pm 8.9 4.8 6.0 82 1.3 N 17 26 9 14 1021.1 1021.2 2.4
04/02:00pm 8.7 5.4 6.2 84 1.1 N 13 22 7 12 1021.2 1021.3 2.4
04/01:30pm 8.2 3.7 6.0 86 1.0 N 19 24 10 13 1021.2 1021.3 2.4
04/01:00pm 8.0 3.5 6.1 88 0.9 N 19 26 10 14 1021.5 1021.6 2.4
04/12:30pm 7.7 3.1 6.3 91 0.6 N 20 28 11 15 1021.8 1021.9 2.4
04/12:00pm 7.7 3.1 6.3 91 0.6 N 20 28 11 15 1022.1 1022.3 2.4
04/11:30am 7.8 2.7 5.9 88 0.9 N 22 32 12 17 1022.3 1022.5 2.0
04/11:00am 7.7 2.6 5.8 88 0.9 N 22 32 12 17 1022.5 1022.7 2.0
04/10:30am 7.8 3.2 5.6 86 1.0 N 19 26 10 14 1022.7 1022.9 1.4
04/10:00am 7.5 2.2 5.1 85 1.1 N 22 28 12 15 1022.5 1022.7 1.2
04/09:30am 7.6 2.6 4.6 81 1.3 N 20 26 11 14 1022.5 1022.7 0.8
04/09:00am 8.7 2.6 2.5 65 2.6 N 24 32 13 17 1022.3 1022.5 0.0

Latest Capital City Observations: Canberra | Sydney | Melbourne | Brisbane | Adelaide | Perth | Hobart | Darwin

Other Formats:

Comma delimited format used in spreadsheet applications
http://www.bom.gov.au/fwo/IDV60901/IDV60901.95866.axf

JavaScript Object Notation format (JSON) in row-major order
http://www.bom.gov.au/fwo/IDV60901/IDV60901.95866.json